Huvudsida
METAR-TAF:

METAR-TAF

Flygplatser :

Sankt Gallen-Altenrheins flygplats

Sankt Gallen, Schweiz

latitud: 47-29-06N, longitud: 009-33-43E, höjd: 398 m

Aktuellt väderrapport

Denna rapport gjordes för 21 minuter sedan, klockan 10:50 UTC
Vind 3 kt från nordväst, varierande mellan väst och nord
Temperatur 17°C
Fuktighet 77%
Tryck 1023 hPa
Sikt 10 km eller mer
Spridda moln på en höjd av 2700 ft
Brutna moln på en höjd av 9000 ft

METAR: LSZR 161050Z 31003KT 270V360 9999 SCT027 BKN090 17/13 Q1023 NOSIG RMK D

Tid: 13:11 (11:11 UTC)

Väderprognos

Denna rapport gjordes för 2 timmar och 46 minuter sedan, klockan 08:25 UTC
Prognos gäller från 16 kl. 09 UTC till 16 kl. 18 UTC
Vind 3 kt varierande vindriktning
Sikt 10 km eller mer
Brutna moln på en höjd av 4000 ft

TAF: LSZR 160825Z 1609/1618 VRB03KT 9999 BKN040

Aktuella väderrapporter och prognoser från 4000 flygplatser (METAR- och TAF-rapporter).

De tillgängliga stationerna syns som gula och röda prickar på kartan.

För musen över prickarna för att se namnen på stationerna.

Klicka sedan för att få väderrapporter och prognoser.

För att ändra kartan: Klicka på de gröna knapparna med ett svart kors på för att zooma in; den gröna knappen med ett streck på för att zooma ut; eller på de gröna pilarna för angränsande kartor.


METAR-TAF: